sensor_id;sensor_type;location;lat;lon;timestamp;P1;durP1;ratioP1;P2;durP2;ratioP2
1545;SDS011;766;51.502;9.752;2022-08-30T00:00:35;5.75;;;3.35;;
1545;SDS011;766;51.502;9.752;2022-08-30T00:03:21;5.90;;;4.28;;
1545;SDS011;766;51.502;9.752;2022-08-30T00:05:50;8.20;;;3.90;;
1545;SDS011;766;51.502;9.752;2022-08-30T00:08:21;6.63;;;3.90;;
1545;SDS011;766;51.502;9.752;2022-08-30T00:10:50;9.73;;;4.28;;
1545;SDS011;766;51.502;9.752;2022-08-30T00:13:20;8.15;;;3.80;;
1545;SDS011;766;51.502;9.752;2022-08-30T00:15:58;6.45;;;3.97;;
1545;SDS011;766;51.502;9.752;2022-08-30T00:18:27;5.93;;;4.15;;
1545;SDS011;766;51.502;9.752;2022-08-30T00:21:01;5.75;;;3.50;;
1545;SDS011;766;51.502;9.752;2022-08-30T00:23:31;8.82;;;4.20;;
1545;SDS011;766;51.502;9.752;2022-08-30T00:26:00;5.35;;;3.40;;
1545;SDS011;766;51.502;9.752;2022-08-30T00:28:30;9.23;;;4.22;;
1545;SDS011;766;51.502;9.752;2022-08-30T00:31:02;6.35;;;3.92;;
1545;SDS011;766;51.502;9.752;2022-08-30T00:33:35;5.68;;;4.25;;
1545;SDS011;766;51.502;9.752;2022-08-30T00:36:03;5.32;;;3.70;;
1545;SDS011;766;51.502;9.752;2022-08-30T00:38:33;5.32;;;4.10;;
1545;SDS011;766;51.502;9.752;2022-08-30T00:41:07;7.25;;;3.60;;
1545;SDS011;766;51.502;9.752;2022-08-30T00:43:38;12.05;;;4.05;;
1545;SDS011;766;51.502;9.752;2022-08-30T00:46:10;8.35;;;4.15;;
1545;SDS011;766;51.502;9.752;2022-08-30T00:48:43;6.47;;;4.20;;
1545;SDS011;766;51.502;9.752;2022-08-30T00:51:17;6.32;;;3.97;;
1545;SDS011;766;51.502;9.752;2022-08-30T00:53:48;9.40;;;4.40;;
1545;SDS011;766;51.502;9.752;2022-08-30T00:56:22;6.65;;;3.65;;
1545;SDS011;766;51.502;9.752;2022-08-30T00:58:59;6.50;;;3.70;;
1545;SDS011;766;51.502;9.752;2022-08-30T01:01:33;6.20;;;4.00;;
1545;SDS011;766;51.502;9.752;2022-08-30T01:04:03;8.13;;;3.60;;
1545;SDS011;766;51.502;9.752;2022-08-30T01:06:34;5.35;;;3.70;;
1545;SDS011;766;51.502;9.752;2022-08-30T01:09:04;5.68;;;3.30;;
1545;SDS011;766;51.502;9.752;2022-08-30T01:11:33;3.97;;;3.05;;
1545;SDS011;766;51.502;9.752;2022-08-30T01:14:08;8.82;;;3.90;;
1545;SDS011;766;51.502;9.752;2022-08-30T01:16:39;13.98;;;3.95;;
1545;SDS011;766;51.502;9.752;2022-08-30T01:19:14;7.15;;;3.50;;
1545;SDS011;766;51.502;9.752;2022-08-30T01:21:55;5.63;;;3.15;;
1545;SDS011;766;51.502;9.752;2022-08-30T01:24:31;5.40;;;3.50;;
1545;SDS011;766;51.502;9.752;2022-08-30T01:27:03;7.05;;;3.58;;
1545;SDS011;766;51.502;9.752;2022-08-30T01:29:33;8.93;;;3.50;;
1545;SDS011;766;51.502;9.752;2022-08-30T01:32:04;6.30;;;3.47;;
1545;SDS011;766;51.502;9.752;2022-08-30T01:34:32;6.55;;;3.30;;
1545;SDS011;766;51.502;9.752;2022-08-30T01:37:02;6.75;;;3.53;;
1545;SDS011;766;51.502;9.752;2022-08-30T01:39:32;4.03;;;3.33;;
1545;SDS011;766;51.502;9.752;2022-08-30T01:42:03;6.70;;;3.90;;
1545;SDS011;766;51.502;9.752;2022-08-30T01:44:35;5.80;;;3.35;;
1545;SDS011;766;51.502;9.752;2022-08-30T01:47:04;6.75;;;3.53;;
1545;SDS011;766;51.502;9.752;2022-08-30T01:49:34;5.47;;;2.95;;
1545;SDS011;766;51.502;9.752;2022-08-30T01:52:05;4.03;;;3.22;;
1545;SDS011;766;51.502;9.752;2022-08-30T01:54:38;3.75;;;3.10;;
1545;SDS011;766;51.502;9.752;2022-08-30T01:57:13;5.97;;;3.33;;
1545;SDS011;766;51.502;9.752;2022-08-30T01:59:44;3.95;;;2.67;;
1545;SDS011;766;51.502;9.752;2022-08-30T02:02:19;5.70;;;3.17;;
1545;SDS011;766;51.502;9.752;2022-08-30T02:04:54;5.18;;;2.60;;
1545;SDS011;766;51.502;9.752;2022-08-30T02:07:23;5.57;;;2.92;;
1545;SDS011;766;51.502;9.752;2022-08-30T02:09:54;5.70;;;2.95;;
1545;SDS011;766;51.502;9.752;2022-08-30T02:12:25;5.35;;;3.00;;
1545;SDS011;766;51.502;9.752;2022-08-30T02:14:57;4.85;;;3.00;;
1545;SDS011;766;51.502;9.752;2022-08-30T02:17:26;4.78;;;3.00;;
1545;SDS011;766;51.502;9.752;2022-08-30T02:19:57;5.43;;;3.10;;
1545;SDS011;766;51.502;9.752;2022-08-30T02:22:25;4.88;;;2.90;;
1545;SDS011;766;51.502;9.752;2022-08-30T02:24:55;4.80;;;2.95;;
1545;SDS011;766;51.502;9.752;2022-08-30T02:27:24;3.25;;;2.85;;
1545;SDS011;766;51.502;9.752;2022-08-30T02:29:53;4.55;;;3.50;;
1545;SDS011;766;51.502;9.752;2022-08-30T02:32:25;4.75;;;2.75;;
1545;SDS011;766;51.502;9.752;2022-08-30T02:34:53;4.40;;;3.15;;
1545;SDS011;766;51.502;9.752;2022-08-30T02:37:24;4.60;;;2.75;;
1545;SDS011;766;51.502;9.752;2022-08-30T02:39:56;3.67;;;2.80;;
1545;SDS011;766;51.502;9.752;2022-08-30T02:42:27;3.20;;;2.50;;
1545;SDS011;766;51.502;9.752;2022-08-30T02:44:55;3.05;;;2.47;;
1545;SDS011;766;51.502;9.752;2022-08-30T02:47:24;4.28;;;2.97;;
1545;SDS011;766;51.502;9.752;2022-08-30T02:49:52;2.63;;;2.22;;
1545;SDS011;766;51.502;9.752;2022-08-30T02:52:21;4.30;;;2.90;;
1545;SDS011;766;51.502;9.752;2022-08-30T02:54:53;5.78;;;2.90;;
1545;SDS011;766;51.502;9.752;2022-08-30T02:57:28;3.38;;;2.55;;
1545;SDS011;766;51.502;9.752;2022-08-30T02:59:58;3.88;;;2.75;;
1545;SDS011;766;51.502;9.752;2022-08-30T03:02:29;3.60;;;2.90;;
1545;SDS011;766;51.502;9.752;2022-08-30T03:05:00;3.45;;;2.40;;
1545;SDS011;766;51.502;9.752;2022-08-30T03:07:29;9.75;;;2.83;;
1545;SDS011;766;51.502;9.752;2022-08-30T03:09:58;6.60;;;3.42;;
1545;SDS011;766;51.502;9.752;2022-08-30T03:12:29;3.22;;;2.85;;
1545;SDS011;766;51.502;9.752;2022-08-30T03:14:59;5.15;;;2.70;;
1545;SDS011;766;51.502;9.752;2022-08-30T03:17:31;4.55;;;2.85;;
1545;SDS011;766;51.502;9.752;2022-08-30T03:20:06;6.72;;;3.20;;
1545;SDS011;766;51.502;9.752;2022-08-30T03:22:36;5.72;;;3.15;;
1545;SDS011;766;51.502;9.752;2022-08-30T03:25:06;16.95;;;4.13;;
1545;SDS011;766;51.502;9.752;2022-08-30T03:27:38;4.72;;;2.80;;
1545;SDS011;766;51.502;9.752;2022-08-30T03:30:10;6.32;;;3.17;;
1545;SDS011;766;51.502;9.752;2022-08-30T03:32:40;4.07;;;2.97;;
1545;SDS011;766;51.502;9.752;2022-08-30T03:35:08;7.82;;;3.50;;
1545;SDS011;766;51.502;9.752;2022-08-30T03:37:41;6.95;;;3.58;;
1545;SDS011;766;51.502;9.752;2022-08-30T03:40:11;4.95;;;3.17;;
1545;SDS011;766;51.502;9.752;2022-08-30T03:42:45;4.05;;;3.00;;
1545;SDS011;766;51.502;9.752;2022-08-30T03:45:15;4.70;;;3.28;;
1545;SDS011;766;51.502;9.752;2022-08-30T03:47:46;4.78;;;3.47;;
1545;SDS011;766;51.502;9.752;2022-08-30T03:50:18;5.05;;;3.10;;
1545;SDS011;766;51.502;9.752;2022-08-30T03:52:50;5.30;;;3.70;;
1545;SDS011;766;51.502;9.752;2022-08-30T03:55:22;3.40;;;2.95;;
1545;SDS011;766;51.502;9.752;2022-08-30T03:57:58;4.20;;;2.90;;
1545;SDS011;766;51.502;9.752;2022-08-30T04:00:26;6.07;;;3.20;;
1545;SDS011;766;51.502;9.752;2022-08-30T04:02:55;6.95;;;2.85;;
1545;SDS011;766;51.502;9.752;2022-08-30T04:05:24;4.32;;;3.50;;
1545;SDS011;766;51.502;9.752;2022-08-30T04:07:53;10.38;;;3.30;;
1545;SDS011;766;51.502;9.752;2022-08-30T04:10:24;6.18;;;3.17;;
1545;SDS011;766;51.502;9.752;2022-08-30T04:12:55;3.92;;;3.53;;
1545;SDS011;766;51.502;9.752;2022-08-30T04:15:26;4.85;;;4.10;;
1545;SDS011;766;51.502;9.752;2022-08-30T04:17:55;5.60;;;4.57;;
1545;SDS011;766;51.502;9.752;2022-08-30T04:20:23;5.30;;;3.92;;
1545;SDS011;766;51.502;9.752;2022-08-30T04:22:55;7.95;;;5.47;;
1545;SDS011;766;51.502;9.752;2022-08-30T04:25:24;5.03;;;4.53;;
1545;SDS011;766;51.502;9.752;2022-08-30T04:27:54;6.85;;;4.88;;
1545;SDS011;766;51.502;9.752;2022-08-30T04:30:25;9.20;;;6.13;;
1545;SDS011;766;51.502;9.752;2022-08-30T04:32:56;9.70;;;6.43;;
1545;SDS011;766;51.502;9.752;2022-08-30T04:35:31;9.30;;;6.88;;
1545;SDS011;766;51.502;9.752;2022-08-30T04:38:01;9.65;;;7.72;;
1545;SDS011;766;51.502;9.752;2022-08-30T04:40:29;14.55;;;8.60;;
1545;SDS011;766;51.502;9.752;2022-08-30T04:42:58;13.63;;;9.38;;
1545;SDS011;766;51.502;9.752;2022-08-30T04:45:29;16.23;;;9.27;;
1545;SDS011;766;51.502;9.752;2022-08-30T04:47:58;17.23;;;9.88;;
1545;SDS011;766;51.502;9.752;2022-08-30T04:50:27;16.25;;;10.23;;
1545;SDS011;766;51.502;9.752;2022-08-30T04:52:56;15.80;;;9.63;;
1545;SDS011;766;51.502;9.752;2022-08-30T04:55:28;12.27;;;9.45;;
1545;SDS011;766;51.502;9.752;2022-08-30T04:58:01;14.75;;;10.52;;
1545;SDS011;766;51.502;9.752;2022-08-30T05:00:32;12.00;;;8.65;;
1545;SDS011;766;51.502;9.752;2022-08-30T05:03:02;15.70;;;9.85;;
1545;SDS011;766;51.502;9.752;2022-08-30T05:05:32;20.15;;;11.02;;
1545;SDS011;766;51.502;9.752;2022-08-30T05:08:08;15.35;;;11.15;;
1545;SDS011;766;51.502;9.752;2022-08-30T05:10:40;16.08;;;11.38;;
1545;SDS011;766;51.502;9.752;2022-08-30T05:13:24;17.08;;;10.48;;
1545;SDS011;766;51.502;9.752;2022-08-30T05:16:08;11.43;;;8.02;;
1545;SDS011;766;51.502;9.752;2022-08-30T05:18:38;11.82;;;8.40;;
1545;SDS011;766;51.502;9.752;2022-08-30T05:21:09;11.50;;;8.68;;
1545;SDS011;766;51.502;9.752;2022-08-30T05:24:29;10.75;;;8.27;;
1545;SDS011;766;51.502;9.752;2022-08-30T05:26:58;14.52;;;9.30;;
1545;SDS011;766;51.502;9.752;2022-08-30T05:29:27;13.75;;;8.82;;
1545;SDS011;766;51.502;9.752;2022-08-30T05:31:59;11.10;;;8.90;;
1545;SDS011;766;51.502;9.752;2022-08-30T05:34:28;12.60;;;10.00;;
1545;SDS011;766;51.502;9.752;2022-08-30T05:36:57;14.45;;;11.15;;
1545;SDS011;766;51.502;9.752;2022-08-30T05:39:30;12.57;;;10.20;;
1545;SDS011;766;51.502;9.752;2022-08-30T05:42:19;15.40;;;10.98;;
1545;SDS011;766;51.502;9.752;2022-08-30T05:44:49;14.77;;;11.82;;
1545;SDS011;766;51.502;9.752;2022-08-30T05:47:22;15.52;;;11.23;;
1545;SDS011;766;51.502;9.752;2022-08-30T05:49:52;14.38;;;10.32;;
1545;SDS011;766;51.502;9.752;2022-08-30T05:52:21;11.68;;;10.18;;
1545;SDS011;766;51.502;9.752;2022-08-30T05:54:51;11.52;;;9.95;;
1545;SDS011;766;51.502;9.752;2022-08-30T05:57:21;16.88;;;11.07;;
1545;SDS011;766;51.502;9.752;2022-08-30T05:59:50;13.27;;;10.55;;
1545;SDS011;766;51.502;9.752;2022-08-30T06:02:20;11.85;;;9.93;;
1545;SDS011;766;51.502;9.752;2022-08-30T06:04:51;11.63;;;9.23;;
1545;SDS011;766;51.502;9.752;2022-08-30T06:07:23;9.90;;;8.43;;
1545;SDS011;766;51.502;9.752;2022-08-30T06:09:52;12.80;;;8.45;;
1545;SDS011;766;51.502;9.752;2022-08-30T06:12:21;16.17;;;9.00;;
1545;SDS011;766;51.502;9.752;2022-08-30T06:14:50;13.00;;;9.30;;
1545;SDS011;766;51.502;9.752;2022-08-30T06:17:23;16.98;;;10.90;;
1545;SDS011;766;51.502;9.752;2022-08-30T06:19:54;10.02;;;8.43;;
1545;SDS011;766;51.502;9.752;2022-08-30T06:22:25;10.23;;;8.75;;
1545;SDS011;766;51.502;9.752;2022-08-30T06:24:57;15.00;;;10.48;;
1545;SDS011;766;51.502;9.752;2022-08-30T06:27:26;15.50;;;11.70;;
1545;SDS011;766;51.502;9.752;2022-08-30T06:29:59;18.58;;;11.93;;
1545;SDS011;766;51.502;9.752;2022-08-30T06:32:33;16.65;;;9.10;;
1545;SDS011;766;51.502;9.752;2022-08-30T06:35:03;8.32;;;7.40;;
1545;SDS011;766;51.502;9.752;2022-08-30T06:37:33;12.60;;;8.52;;
1545;SDS011;766;51.502;9.752;2022-08-30T06:40:03;10.10;;;7.95;;
1545;SDS011;766;51.502;9.752;2022-08-30T06:42:34;10.50;;;8.27;;
1545;SDS011;766;51.502;9.752;2022-08-30T06:45:04;13.70;;;9.18;;
1545;SDS011;766;51.502;9.752;2022-08-30T06:47:38;15.68;;;8.07;;
1545;SDS011;766;51.502;9.752;2022-08-30T06:50:10;11.80;;;7.45;;
1545;SDS011;766;51.502;9.752;2022-08-30T06:52:41;9.25;;;7.95;;
1545;SDS011;766;51.502;9.752;2022-08-30T06:55:15;8.60;;;7.55;;
1545;SDS011;766;51.502;9.752;2022-08-30T06:57:47;18.88;;;10.77;;
1545;SDS011;766;51.502;9.752;2022-08-30T07:00:16;20.20;;;11.30;;
1545;SDS011;766;51.502;9.752;2022-08-30T07:02:46;13.10;;;10.85;;
1545;SDS011;766;51.502;9.752;2022-08-30T07:05:15;15.20;;;10.98;;
1545;SDS011;766;51.502;9.752;2022-08-30T07:07:46;12.88;;;9.27;;
1545;SDS011;766;51.502;9.752;2022-08-30T07:10:15;19.80;;;11.10;;
1545;SDS011;766;51.502;9.752;2022-08-30T07:12:44;14.10;;;9.32;;
1545;SDS011;766;51.502;9.752;2022-08-30T07:15:14;14.75;;;10.68;;
1545;SDS011;766;51.502;9.752;2022-08-30T07:17:47;12.57;;;9.18;;
1545;SDS011;766;51.502;9.752;2022-08-30T07:20:37;11.65;;;9.52;;
1545;SDS011;766;51.502;9.752;2022-08-30T07:23:06;13.13;;;10.35;;
1545;SDS011;766;51.502;9.752;2022-08-30T07:25:35;13.65;;;11.10;;
1545;SDS011;766;51.502;9.752;2022-08-30T07:28:05;15.32;;;12.55;;
1545;SDS011;766;51.502;9.752;2022-08-30T07:30:36;25.60;;;13.05;;
1545;SDS011;766;51.502;9.752;2022-08-30T07:33:17;12.32;;;10.15;;
1545;SDS011;766;51.502;9.752;2022-08-30T07:35:47;12.35;;;10.13;;
1545;SDS011;766;51.502;9.752;2022-08-30T07:38:23;13.38;;;10.27;;
1545;SDS011;766;51.502;9.752;2022-08-30T07:40:55;10.27;;;9.05;;
1545;SDS011;766;51.502;9.752;2022-08-30T07:43:27;11.68;;;9.63;;
1545;SDS011;766;51.502;9.752;2022-08-30T07:45:59;10.27;;;9.15;;
1545;SDS011;766;51.502;9.752;2022-08-30T07:48:29;13.05;;;8.30;;
1545;SDS011;766;51.502;9.752;2022-08-30T07:51:07;14.70;;;8.85;;
1545;SDS011;766;51.502;9.752;2022-08-30T07:53:37;9.35;;;7.90;;
1545;SDS011;766;51.502;9.752;2022-08-30T07:56:08;8.38;;;7.43;;
1545;SDS011;766;51.502;9.752;2022-08-30T07:58:38;7.40;;;6.45;;
1545;SDS011;766;51.502;9.752;2022-08-30T08:01:09;7.43;;;6.72;;
1545;SDS011;766;51.502;9.752;2022-08-30T08:03:41;9.02;;;7.82;;
1545;SDS011;766;51.502;9.752;2022-08-30T08:06:15;10.70;;;7.85;;
1545;SDS011;766;51.502;9.752;2022-08-30T08:08:49;9.68;;;7.07;;
1545;SDS011;766;51.502;9.752;2022-08-30T08:11:22;5.80;;;5.30;;
1545;SDS011;766;51.502;9.752;2022-08-30T08:13:59;6.22;;;5.43;;
1545;SDS011;766;51.502;9.752;2022-08-30T08:16:31;6.18;;;5.10;;
1545;SDS011;766;51.502;9.752;2022-08-30T08:19:02;5.60;;;4.97;;
1545;SDS011;766;51.502;9.752;2022-08-30T08:21:34;5.97;;;5.38;;
1545;SDS011;766;51.502;9.752;2022-08-30T08:24:10;6.88;;;4.50;;
1545;SDS011;766;51.502;9.752;2022-08-30T08:26:38;6.65;;;5.15;;
1545;SDS011;766;51.502;9.752;2022-08-30T08:29:11;6.53;;;5.32;;
1545;SDS011;766;51.502;9.752;2022-08-30T08:31:42;5.53;;;4.55;;
1545;SDS011;766;51.502;9.752;2022-08-30T08:34:18;9.27;;;4.78;;
1545;SDS011;766;51.502;9.752;2022-08-30T08:36:49;9.07;;;4.20;;
1545;SDS011;766;51.502;9.752;2022-08-30T08:39:18;5.80;;;4.50;;
1545;SDS011;766;51.502;9.752;2022-08-30T08:41:49;6.68;;;4.50;;
1545;SDS011;766;51.502;9.752;2022-08-30T08:44:30;4.95;;;4.28;;
1545;SDS011;766;51.502;9.752;2022-08-30T08:47:12;6.45;;;5.32;;
1545;SDS011;766;51.502;9.752;2022-08-30T08:49:48;9.30;;;4.75;;
1545;SDS011;766;51.502;9.752;2022-08-30T08:52:22;8.35;;;4.20;;
1545;SDS011;766;51.502;9.752;2022-08-30T08:55:13;5.30;;;4.43;;
1545;SDS011;766;51.502;9.752;2022-08-30T08:57:46;6.80;;;4.47;;
1545;SDS011;766;51.502;9.752;2022-08-30T09:00:22;8.70;;;4.93;;
1545;SDS011;766;51.502;9.752;2022-08-30T09:02:54;8.57;;;4.10;;
1545;SDS011;766;51.502;9.752;2022-08-30T09:05:26;7.10;;;5.40;;
1545;SDS011;766;51.502;9.752;2022-08-30T09:08:06;5.35;;;3.85;;
1545;SDS011;766;51.502;9.752;2022-08-30T09:10:43;6.82;;;3.92;;
1545;SDS011;766;51.502;9.752;2022-08-30T09:13:20;7.53;;;5.05;;
1545;SDS011;766;51.502;9.752;2022-08-30T09:15:53;4.22;;;3.78;;
1545;SDS011;766;51.502;9.752;2022-08-30T09:21:23;6.75;;;4.93;;
1545;SDS011;766;51.502;9.752;2022-08-30T09:23:56;6.93;;;4.25;;
1545;SDS011;766;51.502;9.752;2022-08-30T09:26:30;7.30;;;3.85;;
1545;SDS011;766;51.502;9.752;2022-08-30T09:29:07;5.30;;;4.07;;
1545;SDS011;766;51.502;9.752;2022-08-30T09:31:49;6.60;;;4.43;;
1545;SDS011;766;51.502;9.752;2022-08-30T09:34:39;5.28;;;3.50;;
1545;SDS011;766;51.502;9.752;2022-08-30T09:37:23;3.53;;;3.00;;
1545;SDS011;766;51.502;9.752;2022-08-30T09:40:07;6.10;;;3.72;;
1545;SDS011;766;51.502;9.752;2022-08-30T09:42:58;5.63;;;3.20;;
1545;SDS011;766;51.502;9.752;2022-08-30T09:45:31;3.58;;;3.10;;
1545;SDS011;766;51.502;9.752;2022-08-30T09:48:22;7.80;;;4.18;;
1545;SDS011;766;51.502;9.752;2022-08-30T09:51:08;5.45;;;3.88;;
1545;SDS011;766;51.502;9.752;2022-08-30T09:54:08;8.65;;;3.55;;
1545;SDS011;766;51.502;9.752;2022-08-30T09:56:51;5.93;;;3.72;;
1545;SDS011;766;51.502;9.752;2022-08-30T09:59:32;4.22;;;3.40;;
1545;SDS011;766;51.502;9.752;2022-08-30T10:05:11;4.25;;;3.80;;
1545;SDS011;766;51.502;9.752;2022-08-30T10:07:50;8.55;;;4.72;;
1545;SDS011;766;51.502;9.752;2022-08-30T10:10:29;6.00;;;3.70;;
1545;SDS011;766;51.502;9.752;2022-08-30T10:13:07;4.40;;;3.22;;
1545;SDS011;766;51.502;9.752;2022-08-30T10:15:54;5.72;;;3.50;;
1545;SDS011;766;51.502;9.752;2022-08-30T10:18:31;5.10;;;3.63;;
1545;SDS011;766;51.502;9.752;2022-08-30T10:21:10;5.60;;;3.53;;
1545;SDS011;766;51.502;9.752;2022-08-30T10:23:50;5.25;;;3.75;;
1545;SDS011;766;51.502;9.752;2022-08-30T10:26:35;4.53;;;3.28;;
1545;SDS011;766;51.502;9.752;2022-08-30T10:29:07;3.78;;;2.85;;
1545;SDS011;766;51.502;9.752;2022-08-30T10:31:45;5.32;;;2.92;;
1545;SDS011;766;51.502;9.752;2022-08-30T10:34:18;4.63;;;2.60;;
1545;SDS011;766;51.502;9.752;2022-08-30T10:36:57;4.07;;;3.03;;
1545;SDS011;766;51.502;9.752;2022-08-30T10:39:34;6.93;;;3.33;;
1545;SDS011;766;51.502;9.752;2022-08-30T10:42:10;6.85;;;3.05;;
1545;SDS011;766;51.502;9.752;2022-08-30T10:44:45;7.10;;;3.55;;
1545;SDS011;766;51.502;9.752;2022-08-30T10:47:23;4.32;;;3.22;;
1545;SDS011;766;51.502;9.752;2022-08-30T10:50:00;6.10;;;3.40;;
1545;SDS011;766;51.502;9.752;2022-08-30T10:52:40;5.32;;;3.80;;
1545;SDS011;766;51.502;9.752;2022-08-30T10:55:15;6.35;;;3.05;;
1545;SDS011;766;51.502;9.752;2022-08-30T10:57:49;4.70;;;2.97;;
1545;SDS011;766;51.502;9.752;2022-08-30T11:00:22;3.75;;;3.15;;
1545;SDS011;766;51.502;9.752;2022-08-30T11:06:08;4.40;;;3.20;;
1545;SDS011;766;51.502;9.752;2022-08-30T11:08:57;4.20;;;3.00;;
1545;SDS011;766;51.502;9.752;2022-08-30T11:11:43;4.85;;;2.88;;
1545;SDS011;766;51.502;9.752;2022-08-30T11:14:44;5.35;;;3.03;;
1545;SDS011;766;51.502;9.752;2022-08-30T11:17:35;4.00;;;3.30;;
1545;SDS011;766;51.502;9.752;2022-08-30T11:20:20;7.13;;;2.92;;
1545;SDS011;766;51.502;9.752;2022-08-30T11:23:13;6.45;;;3.20;;
1545;SDS011;766;51.502;9.752;2022-08-30T11:25:58;4.85;;;2.60;;
1545;SDS011;766;51.502;9.752;2022-08-30T11:31:31;7.22;;;3.70;;
1545;SDS011;766;51.502;9.752;2022-08-30T11:34:07;4.47;;;2.25;;
1545;SDS011;766;51.502;9.752;2022-08-30T11:39:43;5.00;;;2.70;;
1545;SDS011;766;51.502;9.752;2022-08-30T11:42:26;5.75;;;3.28;;
1545;SDS011;766;51.502;9.752;2022-08-30T11:48:05;4.40;;;2.63;;
1545;SDS011;766;51.502;9.752;2022-08-30T11:50:57;4.35;;;2.47;;
1545;SDS011;766;51.502;9.752;2022-08-30T11:53:35;4.40;;;1.98;;
1545;SDS011;766;51.502;9.752;2022-08-30T11:56:13;5.95;;;2.10;;
1545;SDS011;766;51.502;9.752;2022-08-30T11:58:48;5.57;;;2.33;;
1545;SDS011;766;51.502;9.752;2022-08-30T12:01:32;5.20;;;2.75;;
1545;SDS011;766;51.502;9.752;2022-08-30T12:04:30;2.83;;;2.20;;
1545;SDS011;766;51.502;9.752;2022-08-30T12:07:11;3.42;;;2.10;;
1545;SDS011;766;51.502;9.752;2022-08-30T12:10:34;4.53;;;2.28;;
1545;SDS011;766;51.502;9.752;2022-08-30T12:13:07;2.45;;;1.77;;
1545;SDS011;766;51.502;9.752;2022-08-30T12:18:27;5.38;;;1.90;;
1545;SDS011;766;51.502;9.752;2022-08-30T12:21:10;3.17;;;2.08;;
1545;SDS011;766;51.502;9.752;2022-08-30T12:23:53;5.78;;;2.25;;
1545;SDS011;766;51.502;9.752;2022-08-30T12:26:40;5.85;;;2.13;;
1545;SDS011;766;51.502;9.752;2022-08-30T12:29:12;4.65;;;2.30;;
1545;SDS011;766;51.502;9.752;2022-08-30T12:31:45;6.20;;;2.80;;
1545;SDS011;766;51.502;9.752;2022-08-30T12:34:20;5.07;;;2.05;;
1545;SDS011;766;51.502;9.752;2022-08-30T12:37:01;5.18;;;1.90;;
1545;SDS011;766;51.502;9.752;2022-08-30T12:39:35;4.85;;;2.10;;
1545;SDS011;766;51.502;9.752;2022-08-30T12:42:11;3.88;;;2.10;;
1545;SDS011;766;51.502;9.752;2022-08-30T12:44:48;7.13;;;2.25;;
1545;SDS011;766;51.502;9.752;2022-08-30T12:47:20;5.82;;;2.55;;
1545;SDS011;766;51.502;9.752;2022-08-30T12:49:55;2.05;;;1.83;;
1545;SDS011;766;51.502;9.752;2022-08-30T12:52:29;8.65;;;2.08;;
1545;SDS011;766;51.502;9.752;2022-08-30T12:55:09;4.55;;;1.75;;
1545;SDS011;766;51.502;9.752;2022-08-30T12:57:54;3.08;;;2.20;;
1545;SDS011;766;51.502;9.752;2022-08-30T13:00:29;8.20;;;2.20;;
1545;SDS011;766;51.502;9.752;2022-08-30T13:03:00;4.78;;;1.95;;
1545;SDS011;766;51.502;9.752;2022-08-30T13:05:49;3.28;;;2.47;;
1545;SDS011;766;51.502;9.752;2022-08-30T13:08:23;6.68;;;2.55;;
1545;SDS011;766;51.502;9.752;2022-08-30T13:11:02;4.22;;;2.42;;
1545;SDS011;766;51.502;9.752;2022-08-30T13:13:38;5.85;;;2.53;;
1545;SDS011;766;51.502;9.752;2022-08-30T13:16:23;5.57;;;2.40;;
1545;SDS011;766;51.502;9.752;2022-08-30T13:19:14;3.70;;;2.22;;
1545;SDS011;766;51.502;9.752;2022-08-30T13:21:50;5.88;;;2.50;;
1545;SDS011;766;51.502;9.752;2022-08-30T13:24:25;10.20;;;2.40;;
1545;SDS011;766;51.502;9.752;2022-08-30T13:26:54;5.20;;;2.28;;
1545;SDS011;766;51.502;9.752;2022-08-30T13:29:35;4.30;;;2.78;;
1545;SDS011;766;51.502;9.752;2022-08-30T13:32:04;5.75;;;3.20;;
1545;SDS011;766;51.502;9.752;2022-08-30T13:34:34;5.70;;;3.20;;
1545;SDS011;766;51.502;9.752;2022-08-30T13:37:03;7.82;;;2.13;;
1545;SDS011;766;51.502;9.752;2022-08-30T13:40:01;7.00;;;2.53;;
1545;SDS011;766;51.502;9.752;2022-08-30T13:42:30;7.43;;;2.30;;
1545;SDS011;766;51.502;9.752;2022-08-30T13:44:58;4.35;;;2.72;;
1545;SDS011;766;51.502;9.752;2022-08-30T13:47:29;6.72;;;2.28;;
1545;SDS011;766;51.502;9.752;2022-08-30T13:50:00;5.10;;;2.72;;
1545;SDS011;766;51.502;9.752;2022-08-30T13:52:29;3.95;;;2.67;;
1545;SDS011;766;51.502;9.752;2022-08-30T13:54:58;6.70;;;2.80;;
1545;SDS011;766;51.502;9.752;2022-08-30T13:57:29;4.93;;;2.10;;
1545;SDS011;766;51.502;9.752;2022-08-30T14:00:18;5.63;;;2.17;;
1545;SDS011;766;51.502;9.752;2022-08-30T14:02:48;4.75;;;2.35;;
1545;SDS011;766;51.502;9.752;2022-08-30T14:05:21;4.78;;;1.92;;
1545;SDS011;766;51.502;9.752;2022-08-30T14:08:12;4.07;;;1.83;;
1545;SDS011;766;51.502;9.752;2022-08-30T14:11:03;4.13;;;2.08;;
1545;SDS011;766;51.502;9.752;2022-08-30T14:13:32;4.25;;;2.13;;
1545;SDS011;766;51.502;9.752;2022-08-30T14:16:04;3.78;;;2.30;;
1545;SDS011;766;51.502;9.752;2022-08-30T14:18:54;3.25;;;1.92;;
1545;SDS011;766;51.502;9.752;2022-08-30T14:21:24;7.25;;;2.10;;
1545;SDS011;766;51.502;9.752;2022-08-30T14:23:54;3.72;;;1.60;;
1545;SDS011;766;51.502;9.752;2022-08-30T14:26:27;7.03;;;2.25;;
1545;SDS011;766;51.502;9.752;2022-08-30T14:28:59;10.52;;;1.83;;
1545;SDS011;766;51.502;9.752;2022-08-30T14:31:29;4.93;;;1.90;;
1545;SDS011;766;51.502;9.752;2022-08-30T14:34:02;3.45;;;2.13;;
1545;SDS011;766;51.502;9.752;2022-08-30T14:36:35;4.68;;;1.70;;
1545;SDS011;766;51.502;9.752;2022-08-30T14:39:06;2.53;;;2.17;;
1545;SDS011;766;51.502;9.752;2022-08-30T14:41:41;3.85;;;2.15;;
1545;SDS011;766;51.502;9.752;2022-08-30T14:44:12;5.15;;;1.90;;
1545;SDS011;766;51.502;9.752;2022-08-30T14:46:42;3.50;;;1.90;;
1545;SDS011;766;51.502;9.752;2022-08-30T14:49:11;2.58;;;1.95;;
1545;SDS011;766;51.502;9.752;2022-08-30T14:51:42;6.78;;;2.10;;
1545;SDS011;766;51.502;9.752;2022-08-30T14:54:16;7.30;;;1.88;;
1545;SDS011;766;51.502;9.752;2022-08-30T14:56:54;5.88;;;2.30;;
1545;SDS011;766;51.502;9.752;2022-08-30T14:59:26;3.78;;;2.10;;
1545;SDS011;766;51.502;9.752;2022-08-30T15:01:54;2.58;;;1.65;;
1545;SDS011;766;51.502;9.752;2022-08-30T15:04:24;3.60;;;2.03;;
1545;SDS011;766;51.502;9.752;2022-08-30T15:06:54;3.30;;;1.70;;
1545;SDS011;766;51.502;9.752;2022-08-30T15:10:27;5.95;;;2.00;;
1545;SDS011;766;51.502;9.752;2022-08-30T15:12:24;7.25;;;2.38;;
1545;SDS011;766;51.502;9.752;2022-08-30T15:14:54;3.95;;;1.85;;
1545;SDS011;766;51.502;9.752;2022-08-30T15:17:26;5.13;;;1.65;;
1545;SDS011;766;51.502;9.752;2022-08-30T15:19:58;1.85;;;1.73;;
1545;SDS011;766;51.502;9.752;2022-08-30T15:22:27;4.63;;;2.08;;
1545;SDS011;766;51.502;9.752;2022-08-30T15:25:00;3.15;;;1.73;;
1545;SDS011;766;51.502;9.752;2022-08-30T15:27:35;5.15;;;2.08;;
1545;SDS011;766;51.502;9.752;2022-08-30T15:30:06;2.90;;;1.90;;
1545;SDS011;766;51.502;9.752;2022-08-30T15:32:40;2.60;;;1.58;;
1545;SDS011;766;51.502;9.752;2022-08-30T15:35:41;4.25;;;1.63;;
1545;SDS011;766;51.502;9.752;2022-08-30T15:38:14;3.45;;;2.28;;
1545;SDS011;766;51.502;9.752;2022-08-30T15:40:43;4.05;;;1.50;;
1545;SDS011;766;51.502;9.752;2022-08-30T15:43:14;3.08;;;1.83;;
1545;SDS011;766;51.502;9.752;2022-08-30T15:45:43;2.40;;;1.60;;
1545;SDS011;766;51.502;9.752;2022-08-30T15:48:12;2.47;;;1.80;;
1545;SDS011;766;51.502;9.752;2022-08-30T15:50:41;3.50;;;1.58;;
1545;SDS011;766;51.502;9.752;2022-08-30T15:53:09;2.53;;;1.40;;
1545;SDS011;766;51.502;9.752;2022-08-30T15:55:38;4.95;;;2.00;;
1545;SDS011;766;51.502;9.752;2022-08-30T15:58:07;2.78;;;1.40;;
1545;SDS011;766;51.502;9.752;2022-08-30T16:00:37;5.00;;;1.50;;
1545;SDS011;766;51.502;9.752;2022-08-30T16:03:10;2.05;;;1.58;;
1545;SDS011;766;51.502;9.752;2022-08-30T16:05:40;5.03;;;1.58;;
1545;SDS011;766;51.502;9.752;2022-08-30T16:08:09;2.35;;;1.58;;
1545;SDS011;766;51.502;9.752;2022-08-30T16:10:41;4.35;;;1.70;;
1545;SDS011;766;51.502;9.752;2022-08-30T16:13:13;3.92;;;1.50;;
1545;SDS011;766;51.502;9.752;2022-08-30T16:15:46;2.58;;;1.30;;
1545;SDS011;766;51.502;9.752;2022-08-30T16:18:14;5.05;;;1.90;;
1545;SDS011;766;51.502;9.752;2022-08-30T16:20:43;2.30;;;1.30;;
1545;SDS011;766;51.502;9.752;2022-08-30T16:23:14;3.45;;;1.58;;
1545;SDS011;766;51.502;9.752;2022-08-30T16:25:50;2.03;;;1.45;;
1545;SDS011;766;51.502;9.752;2022-08-30T16:28:29;2.72;;;1.40;;